Union City, NJ

1:30 AM EST en Noviembre 27, 2014 (GMT -0500)
WCBS TELEVISION | Change Station
CLOSE
Current Station
Estación meteorológica personal
Location: New York, NY
Altura: 13 ft
Estaciones meteorológicas cercanas

Alt 13 ft 40.77 °N, 73.99 °W | Updated 7 seconds ago

Nublado
Nublado
37.0 ° F
Sensación térmica 37 ° F
N
1.3
Viento Variable Viento desde NO
Gusts 2.3 mph

Hoy
Alta -- | Baja -- ° F
--% Posibilidad de precipitaciones
Ayer
Alta -- | Baja -- ° F
Precip. -- pul
6:56 AM 4:30 PM
Creciente, 26% visible
Presión 29.85 pul
Visibilidad 10.0 Millas
Nubes Baja 1400 ft
Nublado 7000 ft
Vientos helados 37 ° F
Punto de rocío 34 ° F
Humedad 87%
Precipitaciones 0.00 pul
Espesor de la nieve No disponible.
UV 0 de una escala de 12
Polen .10 de una escala de 12
Calidad del aire No disponible.
Flu Activity No disponible.
METAR KNYC 270551Z AUTO VRB05KT 10SM FEW014 OVC070 02/M01 A2987 RMK AO2 SLP108 60011 T00221006 10022 20017 51013 $

More Conditions Fewer Conditions

Presión 29.85 pul
Visibilidad 10.0 Millas
Nubes Baja 1400 ft
Nublado 7000 ft
Vientos helados 37 ° F
Punto de rocío 34 ° F
Humedad 87%
Precipitaciones 0.00 pul
Espesor de la nieve No disponible.
UV 0 de una escala de 12
Polen .10 de una escala de 12
Calidad del aire No disponible.
Flu Activity No disponible.
METAR KNYC 270551Z AUTO VRB05KT 10SM FEW014 OVC070 02/M01 A2987 RMK AO2 SLP108 60011 T00221006 10022 20017 51013 $

More Conditions Fewer Conditions

10-Day Weather Forecast

Almanac

Astronomía

Nov. 27, 2014 Salida Puesta
Hora real
Crepúsculo civil
Crepúsculo náutico
Crepúsculo astronómico
Luna
Horas de luz
Horas de luz
Tomorrow will be .
, % of the Moon is Illuminated

Extremos de hoy

Máximos del estado Bajos del estado

Community

WunderPhotos

Upload Photos

1,773,962 ¡fotos cargadas!

WunderBlogs® & News

Nearby

Calidad del aire

  Calidad del aire Índice AQ Contaminante
Not available.

Grosos de nieve

Estación Profundido Altura

Actividad de terremotos

Ciudad Distance Mag. Tiempo y dato
Magnitud mínima muestra es 2,5.

Temperaturas de aguas costeras

Lugar Temperatura

Estaciones meteorológicas cercanas